Hastings Natural History Reservation, California Weather observations

Data are for 10 minute period ending at time listed.
 Day   Time   Solar   Ave.   Ave.  Ave.  Vector  Max.   Baro.   Total    
  of    of     Rad.   Air    Rel.  Wind   Wind   Wind  Press.  Precip.   
Year   Day            Temp.  Hum.  Speed  Dir.   Gust                    
2014   (PST)  Kw/m2    F      %     mph   deg.    mph    mb.     in.     
-------------------------------------------------------------------------
 352    0:00   0.00   45.5    90    1.1   270     2.8   954.5    0.00 
 352    0:10   0.00   45.3    92    0.9    21     3.1   954.3    0.00 
 352    0:20   0.00   45.0    92    0.9   280     2.5   954.2    0.00 
 352    0:30   0.00   44.8    92    0.8   294     2.8   954.1    0.00 
 352    0:40   0.00   44.7    93    1.2   308     3.2   954.0    0.00 
 352    0:50   0.00   44.8    93    1.0   286     2.9   954.1    0.00 
 352    1:00   0.00   44.6    93    0.7   324     2.0   954.0    0.00 
 352    1:10   0.00   44.4    94    1.8   262     3.9   954.1    0.00 
 352    1:20   0.00   44.7    95    1.1   271     3.2   954.0    0.00 
 352    1:30   0.00   44.8    95    1.3   268     3.7   954.0    0.00 
 352    1:40   0.00   44.8    95    1.0   285     3.1   954.0    0.00 
 352    1:50   0.00   45.0    95    1.0   296     2.6   954.0    0.00 
 352    2:00   0.00   45.3    95    1.1   299     3.3   953.9    0.00 
 352    2:10   0.00   45.3    95    1.1   280     3.6   953.9    0.00 
 352    2:20   0.00   45.3    95    1.6   315     4.9   953.9    0.00 
 352    2:30   0.00   45.4    95    1.0   325     2.6   953.8    0.00 
 352    2:40   0.00   45.5    95    1.0   347     2.4   953.9    0.00 
 352    2:50   0.00   45.7    95    0.8   351     2.3   953.9    0.00 
 352    3:00   0.00   45.8    95    0.6   297     2.7   953.9    0.00 
 352    3:10   0.00   45.8    95    1.0   276     3.9   954.0    0.00 
 352    3:20   0.00   45.8    95    0.8   339     3.4   954.2    0.00 
 352    3:30   0.00   45.8    95    1.0     4     3.4   954.2    0.00 
 352    3:40   0.00   45.7    95    0.9   342     3.1   954.1    0.00 
 352    3:50   0.00   45.8    96    1.1   287     3.7   954.2    0.00 
 352    4:00   0.00   45.8    96    0.9   294     4.7   954.5    0.00 
 352    4:10   0.00   45.9    96    0.6    40     2.3   954.4    0.00 
 352    4:20   0.00   45.8    95    1.0    61     3.1   954.5    0.00 
 352    4:30   0.00   45.8    95    1.9    39     3.9   954.5    0.00 
 352    4:40   0.00   45.8    95    1.3    42     3.5   954.4    0.00 
 352    4:50   0.00   45.8    95    1.4    42     3.8   954.3    0.00 
 352    5:00   0.00   45.8    95    1.1    28     3.7   954.2    0.00 
 352    5:10   0.00   45.8    95    0.8   338     3.3   954.3    0.00 
 352    5:20   0.00   45.6    96    0.9    34     2.8   954.2    0.00 
 352    5:30   0.00   45.5    96    1.0     1     3.0   954.2    0.00 
 352    5:40   0.00   45.5    96    1.3    38     2.9   954.4    0.00 
 352    5:50   0.00   45.7    97    0.4    14     1.9   954.6    0.00 
 352    6:00   0.00   45.8    97    0.8    51     4.6   954.6    0.00 
 352    6:10   0.00   45.8    97    1.0    14     4.2   954.7    0.00 
 352    6:20   0.00   45.8    97    0.5   349     1.8   954.9    0.00 
 352    6:30   0.00   45.8    97    0.7    36     2.3   954.9    0.00 
 352    6:40   0.00   45.8    97    0.5    18     2.0   954.9    0.00 
 352    6:50   0.00   45.8    98    0.1   342     1.2   955.0    0.01 
 352    7:00   0.00   45.8    98    0.7     7     2.5   955.1    0.00 
 352    7:10   0.00   45.8    98    1.0    23     4.6   955.2    0.00 
 352    7:20   0.00   45.8    98    1.2    38     3.9   955.2    0.01 
 352    7:30   0.00   45.7    98    1.2    63     3.3   955.5    0.00 
 352    7:40   0.00   45.6    99    0.6    45     2.3   955.6    0.00 
 352    7:50   0.00   45.5    99    0.7    45     2.2   955.9    0.00 
 352    8:00   0.00   45.5    99    0.6    31     2.2   956.0    0.00 
 352    8:10   0.00   45.3    99    1.3    64     4.4   956.1    0.00 
 352    8:20   0.00   45.0    98    0.8    49     2.9   956.1    0.00 
 352    8:30   0.01   44.8    99    1.2    43     2.9   956.1    0.00 
 352    8:40   0.01   45.0    99    1.0    42     2.3   956.0    0.00 
 352    8:50   0.01   45.3    99    0.9    38     2.6   956.1    0.00 
 352    9:00   0.03   45.3    99    0.6    32     2.2   956.3    0.00 
 352    9:10   0.05   45.8    99    0.5    54     4.0   956.4    0.00 
 352    9:20   0.07   46.5    98    0.9    80     3.2   956.2    0.00 
 352    9:30   0.07   46.9    98    1.1    72     4.1   956.3    0.00 
 352    9:40   0.07   47.4    96    0.9    41     2.6   956.4    0.00 
 352    9:50   0.08   47.9    96    0.7    38     2.4   956.5    0.00 
 352   10:00   0.10   48.5    95    0.7    38     2.1   956.7    0.00 
 352   10:10   0.08   49.1    94    0.6    27     2.6   956.8    0.00 
 352   10:20   0.06   49.1    93    0.4   293     1.6   957.0    0.00 
 352   10:30   0.07   49.1    93    1.1   259     2.6   957.1    0.00 
 352   10:40   0.11   49.5    93    1.0   273     3.3   957.3    0.00 
 352   10:50   0.13   50.2    91    0.6   275     2.9   957.4    0.00 
 352   11:00   0.15   50.5    88    0.8   247     4.1   957.5    0.00 
 352   11:10   0.12   51.0    88    0.8   311     3.2   957.6    0.00 
 352   11:20   0.10   50.9    87    0.9   118     3.1   957.6    0.00 
 352   11:30   0.11   51.1    87    0.9    64     2.9   957.7    0.00 
 352   11:40   0.10   51.5    86    1.0    34     3.0   957.7    0.00 
 352   11:50   0.09   51.7    85    1.1    55     3.7   957.5    0.00 
 352   12:00   0.12   52.1    85    1.1   329     4.5   957.4    0.00 
 352   12:10   0.10   52.2    85    0.6   357     3.2   957.6    0.00 
 352   12:20   0.12   51.8    86    1.0   360     2.9   957.6    0.00 
 352   12:30   0.20   51.7    86    1.1   333     3.7   957.6    0.00 
 352   12:40   0.19   52.6    84    1.0   324     3.9   957.5    0.00 
 352   12:50   0.14   52.9    81    1.0    32     2.8   957.4    0.00 
 352   13:00   0.20   53.1    80    1.2    58     2.9   957.4    0.00 
 352   13:10   0.20   54.0    76    0.8   353     3.1   957.3    0.00 
 352   13:20   0.25   54.7    75    1.8   241     4.4   957.3    0.00 
 352   13:30   0.24   54.8    74    1.4   236     3.4   957.2    0.00 
 352   13:40   0.17   55.5    74    1.3   360     4.3   957.1    0.00 
 352   13:50   0.13   55.1    74    1.8   272     4.9   957.0    0.00 
 352   14:00   0.11   54.8    75    1.5   263     5.0   956.9    0.00 
 352   14:10   0.08   54.3    76    2.0   251     5.1   956.9    0.00 
 352   14:20   0.08   54.3    78    1.7   268     3.9   956.8    0.00 
 352   14:30   0.08   54.7    78    1.0   328     4.2   956.7    0.00 
 352   14:40   0.10   54.5    78    1.8   250     4.4   956.7    0.00 
 352   14:50   0.11   54.2    80    1.9   245     5.2   956.7    0.00 
 352   15:00   0.12   54.2    80    1.7   244     3.7   956.5    0.00 
 352   15:10   0.12   54.4    77    0.4   252     1.9   956.4    0.00 
 352   15:20   0.14   54.8    76    0.4    87     1.6   956.4    0.00 
 352   15:30   0.19   55.3    74    0.7   324     2.9   956.5    0.00 
 352   15:40   0.17   55.6    72    2.2   248     6.4   956.5    0.00 
 352   15:50   0.17   55.9    74    1.2   291     4.2   956.6    0.00 
 352   16:00   0.15   55.5    75    2.2   259     5.6   956.5    0.00 
 352   16:10   0.10   54.9    75    1.8   245     3.4   956.4    0.00 
 352   16:20   0.10   54.6    77    1.0   226     2.9   956.5    0.00 
 352   16:30   0.07   54.2    76    2.4   231     4.2   956.6    0.00 
 352   16:40   0.12   54.0    77    1.0   224     2.4   956.7    0.00 
 352   16:50   0.11   54.7    76    2.0   234     3.7   956.7    0.00 
 352   17:00   0.05   53.9    79    1.8   241     3.4   956.8    0.00 
 352   17:10   0.03   53.4    81    1.5   232     3.2   956.8    0.00 
 352   17:20   0.02   52.5    84    0.1   269     0.7   956.8    0.00 
 352   17:30   0.01   51.6    86    0.1   229     0.7   956.8    0.00 
 352   17:40   0.01   50.5    88    0.2    84     1.4   956.6    0.00 
 352   17:50   0.00   49.4    90    1.1    49     1.8   956.6    0.00 
 352   18:00   0.00   48.5    92    0.8    81     2.0   956.8    0.00 
 352   18:10   0.00   47.7    93    0.8    54     2.3   956.7    0.00 
 352   18:20   0.00   47.6    95    0.6    63     3.0   956.7    0.00 
 352   18:30   0.00   47.4    95    0.6    62     1.8   956.7    0.00 
 352   18:40   0.00   47.3    96    1.4    68     3.3   956.9    0.00 
 352   18:50   0.00   46.9    96    1.1    57     3.4   957.1    0.00 
 352   19:00   0.00   46.7    96    1.8    71     4.1   957.1    0.00 
 352   19:10   0.00   46.6    96    1.2    63     4.4   957.2    0.00 
 352   19:20   0.00   46.1    96    1.6    67     4.7   957.4    0.00 
 352   19:30   0.00   46.3    96    2.3    64     5.7   957.5    0.00 
 352   19:40   0.00   46.5    95    2.1    77     3.8   957.7    0.00 
 352   19:50   0.00   46.7    93    1.2    82     4.5   957.7    0.00 
 352   20:00   0.00   45.7    92    0.4    79     1.5   957.7    0.00 
 352   20:10   0.00   45.3    94    1.3    72     2.6   957.7    0.00 
 352   20:20   0.00   45.2    96    0.7    85     2.8   957.8    0.00 
 352   20:30   0.00   44.8    96    0.9    73     2.8   957.7    0.00 
 352   20:40   0.00   44.7    96    1.7    66     2.8   957.5    0.00 
 352   20:50   0.00   44.3    96    0.6    69     1.8   957.4    0.00 
 352   21:00   0.00   44.5    97    2.2    72     4.2   957.5    0.00 
 352   21:10   0.00   44.6    96    0.8    75     3.3   957.6    0.00 
 352   21:20   0.00   44.3    97    1.8    75     4.0   957.6    0.00 
 352   21:30   0.00   44.6    97    1.5    63     2.9   957.5    0.00 
 352   21:40   0.00   44.6    97    0.9    74     3.1   957.3    0.00 
 352   21:50   0.00   44.5    98    0.6    73     2.1   957.2    0.00 
 352   22:00   0.00   45.3    99    2.4    47     4.2   957.3    0.00 
 352   22:10   0.00   45.7    98    1.2    43     2.9   957.7    0.00 
 352   22:20   0.00   45.7    98    2.2    76     3.6   958.1    0.00 
 352   22:30   0.00   45.8    98    3.2    56     4.7   958.0    0.00 
 352   22:40   0.00   45.4    98    2.0    49     4.3   958.1    0.00 
 352   22:50   0.00   45.2    98    0.7    62     1.6   958.0    0.00 
 352   23:00   0.00   44.8    98    0.9    54     2.0   957.9    0.00 
 352   23:10   0.00   44.8    98    0.3    46     1.2   957.9    0.00 
 352   23:20   0.00   45.0    99    2.3    68     4.5   958.0    0.00 
 352   23:30   0.00   45.1    99    2.1    60     4.3   957.7    0.00 
 352   23:40   0.00   45.4    99    2.1    52     4.8   957.6    0.00 
 352   23:50   0.00   45.7    99    1.6    63     5.3   957.9    0.00 

Return to Hastings Natural History Reservation graphs page.


Western Regional Climate Center,wrcc@dri.edu